createdAt,value
2018-09-27T00:00:45.312Z,36.15
2018-09-27T00:01:45.272Z,36.44
2018-09-27T00:02:45.303Z,36.71
2018-09-27T00:03:45.223Z,36.81
2018-09-27T00:04:45.534Z,36.81
2018-09-27T00:05:45.167Z,36.81
2018-09-27T00:06:45.128Z,37.01
2018-09-27T00:07:45.133Z,36.91
2018-09-27T00:08:45.084Z,38.06
2018-09-27T00:09:45.031Z,37.96
2018-09-27T00:10:45.186Z,37.96
2018-09-27T00:11:44.977Z,37.86
2018-09-27T00:12:44.939Z,38.15
2018-09-27T00:13:44.911Z,38.06
2018-09-27T00:14:44.906Z,38.64
2018-09-27T00:15:44.881Z,38.44
2018-09-27T00:16:44.862Z,37.66
2018-09-27T00:17:44.818Z,37.08
2018-09-27T00:18:44.761Z,36.87
2018-09-27T00:19:44.734Z,36.79
2018-09-27T00:20:44.714Z,37.18
2018-09-27T00:21:44.680Z,36.69
2018-09-27T00:22:44.647Z,36.21
2018-09-27T00:23:44.651Z,35.43
2018-09-27T00:24:44.597Z,34.46
2018-09-27T00:25:44.551Z,34.36
2018-09-27T00:26:44.588Z,35.72
2018-09-27T00:27:44.493Z,36.79
2018-09-27T00:28:44.472Z,36.99
2018-09-27T00:29:44.530Z,37.66
2018-09-27T00:30:44.425Z,38.15
2018-09-27T00:31:44.550Z,38.44
2018-09-27T00:32:44.492Z,38.64
2018-09-27T00:33:44.309Z,37.96
2018-09-27T00:34:44.310Z,38.15
2018-09-27T00:35:44.265Z,38.23
2018-09-27T00:36:44.512Z,37.47
2018-09-27T00:37:44.190Z,37.96
2018-09-27T00:38:44.246Z,38.64
2018-09-27T00:39:44.215Z,38.23
2018-09-27T00:40:44.130Z,38.13
2018-09-27T00:41:44.066Z,37.94
2018-09-27T00:42:44.086Z,38.04
2018-09-27T00:43:44.039Z,37.94
2018-09-27T00:44:43.980Z,38.71
2018-09-27T00:45:43.945Z,39.20
2018-09-27T00:46:43.916Z,40.08
2018-09-27T00:47:43.895Z,40.26
2018-09-27T00:49:43.837Z,39.78
2018-09-27T00:50:43.797Z,39.95
2018-09-27T00:51:43.765Z,40.05
2018-09-27T00:52:43.854Z,39.95
2018-09-27T00:53:43.711Z,40.05
2018-09-27T00:54:43.694Z,39.95
2018-09-27T00:55:43.644Z,39.98
2018-09-27T00:56:43.607Z,39.76
2018-09-27T00:57:43.614Z,39.86
2018-09-27T00:58:43.549Z,39.95
2018-09-27T00:59:43.770Z,39.76
2018-09-27T01:00:43.509Z,40.15
2018-09-27T01:01:43.457Z,39.28
2018-09-27T01:02:43.425Z,39.86
2018-09-27T01:03:43.399Z,40.26
2018-09-27T01:04:43.394Z,40.34
2018-09-27T01:06:43.314Z,39.67
2018-09-27T01:07:43.275Z,39.67
2018-09-27T01:08:43.251Z,39.69
2018-09-27T01:09:43.214Z,39.98
2018-09-27T01:10:43.229Z,39.39
2018-09-27T01:11:43.153Z,38.81
2018-09-27T01:12:43.136Z,38.81
2018-09-27T01:13:43.102Z,38.81
2018-09-27T01:14:43.064Z,38.91
2018-09-27T01:15:43.027Z,37.94
2018-09-27T01:16:43.021Z,38.42
2018-09-27T01:17:43.074Z,38.62
2018-09-27T01:18:42.955Z,38.13
2018-09-27T01:19:42.910Z,38.23
2018-09-27T01:20:42.879Z,37.55
2018-09-27T01:21:42.843Z,37.26
2018-09-27T01:22:42.822Z,36.97
2018-09-27T01:23:42.798Z,36.77
2018-09-27T01:24:42.766Z,36.19
2018-09-27T01:25:42.740Z,36.19
2018-09-27T01:26:42.719Z,36.10
2018-09-27T01:27:42.666Z,36.29
2018-09-27T01:28:42.633Z,36.68
2018-09-27T01:29:42.612Z,36.29
2018-09-27T01:30:42.610Z,35.71
2018-09-27T01:31:42.741Z,35.80
2018-09-27T01:32:42.715Z,35.32
2018-09-27T01:33:42.625Z,35.14
2018-09-27T01:34:42.448Z,35.24
2018-09-27T01:35:42.420Z,36.58
2018-09-27T01:36:42.413Z,36.68
2018-09-27T01:37:42.559Z,36.19
2018-09-27T01:38:42.384Z,35.90
2018-09-27T01:39:42.317Z,36.58
2018-09-27T01:40:42.265Z,36.97
2018-09-27T01:41:42.234Z,37.16
2018-09-27T01:42:42.202Z,36.68
2018-09-27T01:43:42.522Z,37.16
2018-09-27T01:44:42.154Z,37.55
2018-09-27T01:45:42.110Z,36.87
2018-09-27T01:46:42.091Z,36.10
2018-09-27T01:47:42.048Z,35.41
2018-09-27T01:48:42.037Z,35.71
2018-09-27T01:50:41.960Z,36.19
2018-09-27T01:51:41.938Z,36.00
2018-09-27T01:52:41.903Z,35.32
2018-09-27T01:53:41.872Z,34.83
2018-09-27T01:54:41.836Z,36.19
2018-09-27T01:55:41.799Z,36.97
2018-09-27T01:56:41.785Z,37.74
2018-09-27T01:57:41.748Z,38.23
2018-09-27T01:58:41.709Z,38.02
2018-09-27T01:59:41.690Z,37.82
2018-09-27T02:00:41.682Z,38.70
2018-09-27T02:01:41.618Z,39.37
2018-09-27T02:02:41.610Z,39.67
2018-09-27T02:03:41.568Z,39.57
2018-09-27T02:04:41.533Z,39.08
2018-09-27T02:05:41.701Z,39.37
2018-09-27T02:06:41.491Z,38.89
2018-09-27T02:07:41.437Z,38.79
2018-09-27T02:08:41.413Z,38.70
2018-09-27T02:09:41.384Z,38.12
2018-09-27T02:10:41.358Z,37.43
2018-09-27T02:11:41.414Z,37.34
2018-09-27T02:12:41.301Z,37.34
2018-09-27T02:13:41.251Z,37.05
2018-09-27T02:14:41.300Z,37.05
2018-09-27T02:15:41.195Z,36.76
2018-09-27T02:16:41.174Z,36.76
2018-09-27T02:17:41.133Z,36.36
2018-09-27T02:18:41.093Z,36.56
2018-09-27T02:19:41.070Z,36.27
2018-09-27T02:20:41.081Z,36.27
2018-09-27T02:21:41.027Z,36.18
2018-09-27T02:22:40.968Z,36.44
2018-09-27T02:23:40.940Z,35.59
2018-09-27T02:24:40.935Z,35.30
2018-09-27T02:25:40.893Z,35.01
2018-09-27T02:26:40.853Z,35.40
2018-09-27T02:27:40.820Z,36.36
2018-09-27T02:28:40.812Z,37.05
2018-09-27T02:29:40.774Z,37.63
2018-09-27T02:30:40.729Z,38.02
2018-09-27T02:31:40.703Z,38.79
2018-09-27T02:32:40.673Z,40.44
2018-09-27T02:33:40.635Z,41.70
2018-09-27T02:34:40.604Z,43.16
2018-09-27T02:35:40.575Z,42.96
2018-09-27T02:36:40.551Z,43.74
2018-09-27T02:37:40.871Z,43.62
2018-09-27T02:38:40.479Z,43.23
2018-09-27T02:39:40.451Z,43.72
2018-09-27T02:40:40.424Z,43.72
2018-09-27T02:41:40.397Z,43.72
2018-09-27T02:42:40.349Z,43.23
2018-09-27T02:43:40.327Z,43.43
2018-09-27T02:44:40.295Z,43.13
2018-09-27T02:45:40.275Z,42.75
2018-09-27T02:46:40.235Z,42.94
2018-09-27T02:47:40.204Z,42.63
2018-09-27T02:48:40.171Z,41.47
2018-09-27T02:49:40.151Z,40.69
2018-09-27T02:50:40.110Z,40.31
2018-09-27T02:51:40.087Z,41.08
2018-09-27T02:52:40.062Z,41.37
2018-09-27T02:53:40.015Z,41.66
2018-09-27T02:54:39.996Z,41.37
2018-09-27T02:55:39.953Z,41.17
2018-09-27T02:56:39.950Z,40.69
2018-09-27T02:57:39.911Z,41.17
2018-09-27T02:58:39.862Z,39.92
2018-09-27T02:59:39.832Z,39.82
2018-09-27T03:00:39.806Z,39.14
2018-09-27T03:01:39.765Z,38.95
2018-09-27T03:02:39.860Z,38.85
2018-09-27T03:03:39.814Z,38.95
2018-09-27T03:04:39.841Z,38.76
2018-09-27T03:05:39.651Z,38.76
2018-09-27T03:06:39.612Z,38.85
2018-09-27T03:07:39.584Z,38.56
2018-09-27T03:08:39.555Z,38.87
2018-09-27T03:09:39.741Z,38.85
2018-09-27T03:10:39.489Z,39.26
2018-09-27T03:11:39.462Z,38.76
2018-09-27T03:12:39.430Z,39.82
2018-09-27T03:13:39.399Z,40.40
2018-09-27T03:14:39.369Z,41.08
2018-09-27T03:15:39.484Z,42.72
2018-09-27T03:16:39.339Z,43.02
2018-09-27T03:17:39.309Z,43.60
2018-09-27T03:18:39.261Z,44.35
2018-09-27T03:19:39.214Z,45.22
2018-09-27T03:20:39.295Z,46.29
2018-09-27T03:21:39.194Z,46.97
2018-09-27T03:22:39.167Z,47.26
2018-09-27T03:23:39.155Z,47.36
2018-09-27T03:24:39.051Z,46.56
2018-09-27T03:25:39.019Z,46.94
2018-09-27T03:26:38.988Z,46.75
2018-09-27T03:27:38.962Z,46.84
2018-09-27T03:28:38.929Z,46.84
2018-09-27T03:29:38.899Z,46.84
2018-09-27T03:30:38.868Z,45.49
2018-09-27T03:31:38.840Z,44.91
2018-09-27T03:32:38.808Z,44.53
2018-09-27T03:33:38.781Z,45.30
2018-09-27T03:34:38.747Z,44.72
2018-09-27T03:35:38.717Z,44.81
2018-09-27T03:36:38.680Z,44.13
2018-09-27T03:37:38.670Z,44.81
2018-09-27T03:38:38.629Z,44.53
2018-09-27T03:39:38.664Z,43.85
2018-09-27T03:40:38.587Z,43.37
2018-09-27T03:41:38.674Z,43.27
2018-09-27T03:42:38.489Z,43.65
2018-09-27T03:43:38.461Z,43.27
2018-09-27T03:44:38.440Z,43.37
2018-09-27T03:45:38.405Z,44.23
2018-09-27T03:46:38.362Z,44.33
2018-09-27T03:47:38.496Z,44.81
2018-09-27T03:48:38.312Z,45.01
2018-09-27T03:49:38.273Z,45.40
2018-09-27T03:50:38.242Z,44.43
2018-09-27T03:51:38.211Z,44.62
2018-09-27T03:52:38.180Z,45.40
2018-09-27T03:53:38.142Z,44.91
2018-09-27T03:54:38.154Z,45.40
2018-09-27T03:55:38.086Z,44.62
2018-09-27T03:56:38.050Z,44.62
2018-09-27T03:57:38.014Z,44.53
2018-09-27T03:58:37.985Z,44.53
2018-09-27T03:59:37.963Z,44.23
2018-09-27T04:00:37.978Z,44.72
2018-09-27T04:01:37.902Z,44.91
2018-09-27T04:02:37.866Z,44.91
2018-09-27T04:03:37.836Z,44.62
2018-09-27T04:04:37.806Z,44.43
2018-09-27T04:05:37.773Z,44.53
2018-09-27T04:06:37.747Z,44.91
2018-09-27T04:07:37.721Z,44.53
2018-09-27T04:08:37.679Z,44.33
2018-09-27T04:09:37.646Z,44.43
2018-09-27T04:10:37.610Z,44.23
2018-09-27T04:11:37.579Z,44.43
2018-09-27T04:12:37.607Z,45.30
2018-09-27T04:13:37.872Z,45.49
2018-09-27T04:14:37.497Z,45.40
2018-09-27T04:15:37.460Z,45.40
2018-09-27T04:16:37.423Z,45.49
2018-09-27T04:17:37.392Z,45.49
2018-09-27T04:18:37.361Z,45.49
2018-09-27T04:19:37.531Z,45.59
2018-09-27T04:20:37.304Z,45.88
2018-09-27T04:21:37.267Z,45.98
2018-09-27T04:22:37.238Z,45.98
2018-09-27T04:23:37.209Z,45.88
2018-09-27T04:24:37.169Z,46.66
2018-09-27T04:25:37.151Z,46.94
2018-09-27T04:26:37.112Z,47.72
2018-09-27T04:27:37.085Z,47.24
2018-09-27T04:28:37.049Z,47.69
2018-09-27T04:29:37.023Z,48.08
2018-09-27T04:30:36.987Z,48.47
2018-09-27T04:31:36.949Z,48.08
2018-09-27T04:32:36.918Z,47.99
2018-09-27T04:33:36.936Z,48.27
2018-09-27T04:34:36.861Z,48.66
2018-09-27T04:35:36.868Z,49.05
2018-09-27T04:36:36.814Z,48.95
2018-09-27T04:37:36.760Z,49.05
2018-09-27T04:38:36.728Z,49.24
2018-09-27T04:39:36.701Z,49.34
2018-09-27T04:40:36.669Z,49.15
2018-09-27T04:41:36.633Z,48.95
2018-09-27T04:42:36.609Z,49.34
2018-09-27T04:43:36.571Z,49.73
2018-09-27T04:44:36.541Z,49.82
2018-09-27T04:45:36.872Z,49.44
2018-09-27T04:46:36.540Z,49.44
2018-09-27T04:47:36.496Z,48.95
2018-09-27T04:48:36.420Z,49.44
2018-09-27T04:49:36.384Z,49.34
2018-09-27T04:50:36.384Z,49.44
2018-09-27T04:51:36.358Z,49.82
2018-09-27T04:52:36.297Z,50.12
2018-09-27T04:53:36.255Z,49.82
2018-09-27T04:54:36.249Z,49.92
2018-09-27T04:55:36.202Z,50.21
2018-09-27T04:56:36.171Z,50.70
2018-09-27T04:57:36.129Z,50.70
2018-09-27T04:58:36.105Z,50.70
2018-09-27T04:59:36.066Z,51.56
2018-09-27T05:00:36.033Z,51.44
2018-09-27T05:01:36.004Z,51.15
2018-09-27T05:02:35.970Z,52.02
2018-09-27T05:03:35.941Z,51.93
2018-09-27T05:04:35.910Z,52.02
2018-09-27T05:05:35.878Z,52.41
2018-09-27T05:06:35.845Z,52.19
2018-09-27T05:07:35.814Z,52.19
2018-09-27T05:08:35.794Z,53.28
2018-09-27T05:09:35.780Z,53.28
2018-09-27T05:10:35.714Z,53.74
2018-09-27T05:11:35.688Z,53.64
2018-09-27T05:12:35.675Z,53.06
2018-09-27T05:13:35.625Z,53.93
2018-09-27T05:14:35.597Z,54.13
2018-09-27T05:15:35.592Z,54.13
2018-09-27T05:16:35.538Z,54.58
2018-09-27T05:17:35.700Z,54.90
2018-09-27T05:18:35.467Z,54.39
2018-09-27T05:19:35.439Z,53.91
2018-09-27T05:20:35.420Z,53.71
2018-09-27T05:21:35.454Z,53.71
2018-09-27T05:22:35.353Z,53.61
2018-09-27T05:23:35.566Z,53.61
2018-09-27T05:24:35.287Z,53.03
2018-09-27T05:25:35.251Z,53.33
2018-09-27T05:26:35.221Z,53.23
2018-09-27T05:27:35.193Z,52.75
2018-09-27T05:28:35.157Z,52.87
2018-09-27T05:29:35.124Z,52.77
2018-09-27T05:30:35.095Z,52.77
2018-09-27T05:31:35.060Z,51.90
2018-09-27T05:32:35.032Z,52.19
2018-09-27T05:33:35.059Z,52.00
2018-09-27T05:34:34.966Z,52.00
2018-09-27T05:35:34.942Z,52.77
2018-09-27T05:36:34.901Z,52.97
2018-09-27T05:37:34.875Z,52.97
2018-09-27T05:38:34.839Z,53.45
2018-09-27T05:39:34.829Z,53.55
2018-09-27T05:40:34.781Z,53.74
2018-09-27T05:41:34.752Z,54.71
2018-09-27T05:42:34.712Z,54.90
2018-09-27T05:43:34.681Z,55.45
2018-09-27T05:44:34.649Z,55.65
2018-09-27T05:45:34.649Z,56.80
2018-09-27T05:46:34.582Z,57.35
2018-09-27T05:47:34.553Z,58.12
2018-09-27T05:48:34.518Z,58.32
2018-09-27T05:49:34.490Z,58.51
2018-09-27T05:50:34.455Z,58.90
2018-09-27T05:51:34.428Z,58.80
2018-09-27T05:52:34.393Z,58.70
2018-09-27T05:53:34.359Z,58.80
2018-09-27T05:54:34.326Z,58.61
2018-09-27T05:55:34.333Z,58.12
2018-09-27T05:56:34.264Z,58.22
2018-09-27T05:57:34.265Z,58.61
2018-09-27T05:58:34.203Z,58.61
2018-09-27T05:59:34.167Z,58.42
2018-09-27T06:00:34.160Z,58.68
2018-09-27T06:01:34.104Z,58.58
2018-09-27T06:02:34.079Z,59.25
2018-09-27T06:03:34.060Z,59.25
2018-09-27T06:04:34.012Z,58.87
2018-09-27T06:05:33.972Z,59.45
2018-09-27T06:06:33.941Z,59.25
2018-09-27T06:07:33.909Z,59.06
2018-09-27T06:08:33.885Z,58.77
2018-09-27T06:09:33.863Z,59.06
2018-09-27T06:10:33.815Z,58.87
2018-09-27T06:11:33.832Z,59.45
2018-09-27T06:12:33.757Z,59.06
2018-09-27T06:13:33.718Z,59.74
2018-09-27T06:14:33.683Z,59.83
2018-09-27T06:15:33.674Z,59.93
2018-09-27T06:16:33.619Z,59.93
2018-09-27T06:17:33.597Z,59.64
2018-09-27T06:18:33.567Z,60.41
2018-09-27T06:19:33.711Z,60.03
2018-09-27T06:20:33.490Z,59.96
2018-09-27T06:21:33.491Z,60.13
2018-09-27T06:22:33.434Z,60.61
2018-09-27T06:23:33.397Z,60.51
2018-09-27T06:24:33.365Z,60.31
2018-09-27T06:25:33.481Z,60.41
2018-09-27T06:26:33.313Z,60.61
2018-09-27T06:27:33.288Z,60.13
2018-09-27T06:28:33.233Z,60.22
2018-09-27T06:29:33.203Z,60.31
2018-09-27T06:30:33.166Z,60.71
2018-09-27T06:31:33.137Z,60.31
2018-09-27T06:32:33.103Z,60.25
2018-09-27T06:33:33.162Z,60.54
2018-09-27T06:34:33.043Z,60.93
2018-09-27T06:35:33.012Z,60.89
2018-09-27T06:36:32.973Z,60.80
2018-09-27T06:37:32.942Z,60.54
2018-09-27T06:38:32.950Z,60.83
2018-09-27T06:39:32.888Z,61.28
2018-09-27T06:40:32.845Z,61.89
2018-09-27T06:41:32.876Z,61.80
2018-09-27T06:42:32.790Z,61.77
2018-09-27T06:43:32.747Z,61.96
2018-09-27T06:44:32.731Z,62.15
2018-09-27T06:45:32.699Z,62.15
2018-09-27T06:46:32.850Z,61.57
2018-09-27T06:47:32.621Z,61.77
2018-09-27T06:48:32.592Z,62.05
2018-09-27T06:49:32.556Z,62.15
2018-09-27T06:50:32.609Z,62.25
2018-09-27T06:51:32.489Z,62.54
2018-09-27T06:52:32.455Z,62.44
2018-09-27T06:53:32.421Z,62.51
2018-09-27T06:54:32.394Z,63.18
2018-09-27T06:55:32.406Z,62.89
2018-09-27T06:56:32.367Z,62.22
2018-09-27T06:57:32.306Z,62.60
2018-09-27T06:58:32.261Z,62.79
2018-09-27T06:59:32.229Z,63.09
2018-09-27T07:00:32.198Z,63.28
2018-09-27T07:01:32.178Z,62.89
2018-09-27T07:02:32.219Z,62.79
2018-09-27T07:03:32.099Z,62.89
2018-09-27T07:04:32.066Z,62.89
2018-09-27T07:05:32.033Z,63.76
2018-09-27T07:06:32.004Z,63.67
2018-09-27T07:07:31.970Z,64.05
2018-09-27T07:08:31.996Z,64.15
2018-09-27T07:09:31.905Z,63.95
2018-09-27T07:10:31.871Z,64.05
2018-09-27T07:11:31.837Z,64.34
2018-09-27T07:12:32.019Z,64.82
2018-09-27T07:13:31.773Z,64.43
2018-09-27T07:14:31.798Z,64.43
2018-09-27T07:15:31.722Z,64.43
2018-09-27T07:16:31.680Z,64.63
2018-09-27T07:17:31.644Z,64.34
2018-09-27T07:18:31.872Z,64.72
2018-09-27T07:19:31.580Z,65.01
2018-09-27T07:20:31.557Z,65.20
2018-09-27T07:21:31.519Z,65.59
2018-09-27T07:22:31.491Z,65.37
2018-09-27T07:23:31.447Z,65.37
2018-09-27T07:24:31.623Z,65.37
2018-09-27T07:25:31.381Z,65.66
2018-09-27T07:26:31.386Z,66.17
2018-09-27T07:27:31.319Z,65.75
2018-09-27T07:28:31.287Z,65.75
2018-09-27T07:29:31.251Z,65.75
2018-09-27T07:30:31.220Z,65.59
2018-09-27T07:31:31.190Z,65.98
2018-09-27T07:32:31.168Z,65.85
2018-09-27T07:33:31.119Z,65.59
2018-09-27T07:34:31.088Z,65.88
2018-09-27T07:35:31.366Z,66.24
2018-09-27T07:36:31.086Z,66.27
2018-09-27T07:37:31.002Z,65.59
2018-09-27T07:38:31.013Z,65.59
2018-09-27T07:39:30.925Z,65.78
2018-09-27T07:40:30.892Z,65.59
2018-09-27T07:41:30.858Z,65.78
2018-09-27T07:42:30.834Z,66.56
2018-09-27T07:43:30.793Z,66.04
2018-09-27T07:44:30.784Z,66.52
2018-09-27T07:45:30.729Z,66.46
2018-09-27T07:46:30.697Z,66.91
2018-09-27T07:47:30.663Z,67.00
2018-09-27T07:48:30.739Z,67.20
2018-09-27T07:49:30.599Z,67.00
2018-09-27T07:50:30.780Z,67.20
2018-09-27T07:51:30.530Z,67.00
2018-09-27T07:52:30.499Z,67.10
2018-09-27T07:53:30.469Z,67.10
2018-09-27T07:54:30.475Z,67.00
2018-09-27T07:55:30.405Z,67.00
2018-09-27T07:56:30.425Z,67.20
2018-09-27T07:57:30.334Z,67.20
2018-09-27T07:58:30.310Z,67.00
2018-09-27T07:59:30.272Z,66.97
2018-09-27T08:00:30.242Z,66.97
2018-09-27T08:01:30.204Z,67.16
2018-09-27T08:02:30.297Z,67.36
2018-09-27T08:03:30.140Z,66.88
2018-09-27T08:04:30.116Z,66.39
2018-09-27T08:05:30.070Z,65.72
2018-09-27T08:06:30.039Z,65.75
2018-09-27T08:07:30.010Z,64.40
2018-09-27T08:08:30.038Z,64.21
2018-09-27T08:09:29.940Z,64.02
2018-09-27T08:10:29.916Z,64.02
2018-09-27T08:11:29.968Z,63.73
2018-09-27T08:12:29.843Z,63.82
2018-09-27T08:13:29.810Z,63.54
2018-09-27T08:14:29.828Z,63.34
2018-09-27T08:15:29.744Z,64.02
2018-09-27T08:16:29.725Z,63.82
2018-09-27T08:17:29.877Z,63.82
2018-09-27T08:18:29.650Z,64.11
2018-09-27T08:19:29.653Z,63.63
2018-09-27T08:20:29.600Z,64.11
2018-09-27T08:21:29.548Z,64.40
2018-09-27T08:22:29.522Z,64.98
2018-09-27T08:23:29.731Z,65.85
2018-09-27T08:24:29.447Z,65.56
2018-09-27T08:25:29.415Z,65.91
2018-09-27T08:26:29.419Z,66.20
2018-09-27T08:27:29.349Z,66.39
2018-09-27T08:28:29.320Z,66.69
2018-09-27T08:29:29.595Z,66.88
2018-09-27T08:30:29.254Z,66.59
2018-09-27T08:31:29.228Z,66.78
2018-09-27T08:32:29.211Z,66.49
2018-09-27T08:33:29.153Z,66.88
2018-09-27T08:34:29.122Z,66.49
2018-09-27T08:35:29.091Z,67.16
2018-09-27T08:36:29.062Z,67.36
2018-09-27T08:37:29.040Z,66.88
2018-09-27T08:38:29.086Z,66.30
2018-09-27T08:39:28.961Z,66.49
2018-09-27T08:40:28.929Z,66.39
2018-09-27T08:41:28.896Z,67.16
2018-09-27T08:42:28.863Z,67.84
2018-09-27T08:43:28.827Z,67.94
2018-09-27T08:44:28.883Z,68.32
2018-09-27T08:45:28.806Z,68.52
2018-09-27T08:46:28.726Z,68.13
2018-09-27T08:47:28.693Z,67.55
2018-09-27T08:48:28.661Z,67.46
2018-09-27T08:49:28.628Z,66.88
2018-09-27T08:50:28.894Z,66.78
2018-09-27T08:51:28.585Z,65.75
2018-09-27T08:52:28.546Z,65.27
2018-09-27T08:53:28.498Z,65.72
2018-09-27T08:54:28.465Z,66.01
2018-09-27T08:55:28.455Z,66.14
2018-09-27T08:56:28.423Z,65.56
2018-09-27T08:57:28.411Z,65.47
2018-09-27T08:58:28.428Z,65.17
2018-09-27T08:59:28.297Z,65.53
2018-09-27T09:00:28.261Z,66.59
2018-09-27T09:01:28.270Z,66.88
2018-09-27T09:02:28.196Z,66.88
2018-09-27T09:03:28.234Z,67.46
2018-09-27T09:04:28.141Z,67.26
2018-09-27T09:05:28.097Z,67.36
2018-09-27T09:06:28.067Z,67.81
2018-09-27T09:07:28.077Z,67.84
2018-09-27T09:08:27.999Z,67.46
2018-09-27T09:09:28.025Z,67.13
2018-09-27T09:10:27.942Z,66.97
2018-09-27T09:11:27.909Z,67.26
2018-09-27T09:12:27.867Z,67.26
2018-09-27T09:13:27.867Z,67.16
2018-09-27T09:14:27.806Z,68.13
2018-09-27T09:15:27.811Z,67.90
2018-09-27T09:16:27.741Z,67.84
2018-09-27T09:17:28.102Z,67.55
2018-09-27T09:18:27.669Z,66.88
2018-09-27T09:19:27.646Z,66.88
2018-09-27T09:20:27.616Z,68.04
2018-09-27T09:21:27.642Z,68.80
2018-09-27T09:22:27.534Z,68.32
2018-09-27T09:23:27.710Z,68.61
2018-09-27T09:24:27.492Z,68.90
2018-09-27T09:25:27.485Z,67.88
2018-09-27T09:26:27.406Z,67.97
2018-09-27T09:27:27.386Z,68.07
2018-09-27T09:28:27.367Z,68.55
2018-09-27T09:29:27.338Z,67.88
2018-09-27T09:30:27.265Z,67.78
2018-09-27T09:31:27.233Z,68.16
2018-09-27T09:32:27.198Z,67.78
2018-09-27T09:33:27.207Z,67.88
2018-09-27T09:34:27.136Z,68.84
2018-09-27T09:35:27.151Z,70.03
2018-09-27T09:36:27.071Z,69.71
2018-09-27T09:37:27.034Z,69.64
2018-09-27T09:38:27.000Z,70.22
2018-09-27T09:39:26.970Z,69.45
2018-09-27T09:40:26.941Z,69.35
2018-09-27T09:41:26.902Z,69.16
2018-09-27T09:42:26.867Z,69.16
2018-09-27T09:43:26.839Z,69.16
2018-09-27T09:44:26.807Z,68.97
2018-09-27T09:45:26.771Z,69.07
2018-09-27T09:46:26.737Z,69.16
2018-09-27T09:47:26.713Z,69.45
2018-09-27T09:48:26.667Z,69.10
2018-09-27T09:49:26.835Z,69.10
2018-09-27T09:50:26.613Z,68.19
2018-09-27T09:51:26.574Z,67.85
2018-09-27T09:52:26.540Z,67.46
2018-09-27T09:53:26.506Z,67.94
2018-09-27T09:54:26.472Z,67.85
2018-09-27T09:55:26.646Z,68.23
2018-09-27T09:56:26.408Z,68.62
2018-09-27T09:57:26.370Z,68.62
2018-09-27T09:58:26.346Z,69.00
2018-09-27T09:59:26.308Z,69.10
2018-09-27T10:00:26.276Z,68.71
2018-09-27T10:01:26.244Z,69.13
2018-09-27T10:02:26.296Z,69.52
2018-09-27T10:03:26.176Z,69.52
2018-09-27T10:04:26.146Z,69.23
2018-09-27T10:05:26.481Z,68.55
2018-09-27T10:06:26.089Z,68.26
2018-09-27T10:07:26.063Z,68.55
2018-09-27T10:08:26.020Z,68.07
2018-09-27T10:09:26.002Z,68.17
2018-09-27T10:10:25.952Z,68.40
2018-09-27T10:11:25.927Z,68.01
2018-09-27T10:12:25.897Z,68.10
2018-09-27T10:13:25.857Z,68.01
2018-09-27T10:14:25.824Z,67.82
2018-09-27T10:15:25.792Z,67.91
2018-09-27T10:16:25.757Z,67.94
2018-09-27T10:17:25.735Z,67.66
2018-09-27T10:18:25.691Z,68.04
2018-09-27T10:19:25.662Z,67.85
2018-09-27T10:20:25.631Z,67.75
2018-09-27T10:21:25.595Z,67.27
2018-09-27T10:22:25.812Z,67.21
2018-09-27T10:23:25.532Z,67.59
2018-09-27T10:24:25.508Z,67.30
2018-09-27T10:25:25.471Z,67.40
2018-09-27T10:26:25.445Z,67.11
2018-09-27T10:27:25.430Z,66.82
2018-09-27T10:28:25.537Z,66.37
2018-09-27T10:29:25.338Z,65.75
2018-09-27T10:30:25.303Z,65.40
2018-09-27T10:31:25.276Z,65.20
2018-09-27T10:32:25.242Z,65.20
2018-09-27T10:33:25.213Z,64.62
2018-09-27T10:34:25.211Z,64.62
2018-09-27T10:35:25.154Z,65.11
2018-09-27T10:36:25.126Z,65.72
2018-09-27T10:37:25.099Z,65.72
2018-09-27T10:38:25.057Z,65.05
2018-09-27T10:39:25.025Z,64.75
2018-09-27T10:40:24.989Z,64.37
2018-09-27T10:41:24.952Z,63.89
2018-09-27T10:42:24.926Z,63.92
2018-09-27T10:43:24.899Z,63.53
2018-09-27T10:44:24.862Z,63.34
2018-09-27T10:45:24.822Z,63.14
2018-09-27T10:46:24.795Z,63.24
2018-09-27T10:47:24.768Z,62.17
2018-09-27T10:48:24.729Z,62.37
2018-09-27T10:49:24.849Z,62.46
2018-09-27T10:50:24.668Z,61.98
2018-09-27T10:51:24.638Z,61.52
2018-09-27T10:52:24.605Z,61.59
2018-09-27T10:53:24.572Z,61.24
2018-09-27T10:54:24.543Z,60.55
2018-09-27T10:55:24.726Z,59.69
2018-09-27T10:56:24.478Z,59.97
2018-09-27T10:57:24.447Z,60.85
2018-09-27T10:58:24.409Z,59.97
2018-09-27T10:59:24.384Z,59.13
2018-09-27T11:00:24.352Z,58.84
2018-09-27T11:01:24.332Z,58.65
2018-09-27T11:02:24.290Z,57.78
2018-09-27T11:03:24.264Z,57.58
2018-09-27T11:04:24.232Z,57.29
2018-09-27T11:05:24.252Z,57.39
2018-09-27T11:06:24.168Z,56.61
2018-09-27T11:07:24.137Z,55.83
2018-09-27T11:08:24.100Z,55.93
2018-09-27T11:09:24.075Z,55.54
2018-09-27T11:10:24.039Z,55.16
2018-09-27T11:11:24.036Z,55.28
2018-09-27T11:12:23.979Z,54.50
2018-09-27T11:13:23.955Z,54.21
2018-09-27T11:14:23.990Z,53.44
2018-09-27T11:18:23.894Z,52.95
2018-09-27T11:19:23.772Z,53.15
2018-09-27T11:20:23.821Z,52.98
2018-09-27T11:21:23.700Z,52.59
2018-09-27T11:22:23.666Z,52.69
2018-09-27T11:23:23.661Z,52.11
2018-09-27T11:24:23.757Z,51.33
2018-09-27T11:25:23.609Z,50.84
2018-09-27T11:26:23.547Z,51.23
2018-09-27T11:27:23.567Z,50.74
2018-09-27T11:28:23.486Z,50.48
2018-09-27T11:29:23.455Z,49.71
2018-09-27T11:30:23.481Z,49.12
2018-09-27T11:31:23.422Z,49.32
2018-09-27T11:32:23.360Z,49.02
2018-09-27T11:33:23.326Z,49.12
2018-09-27T11:34:23.299Z,48.25
2018-09-27T11:35:23.264Z,48.25
2018-09-27T11:36:23.309Z,48.25
2018-09-27T11:37:23.208Z,48.08
2018-09-27T11:38:23.200Z,48.27
2018-09-27T11:39:23.154Z,47.98
2018-09-27T11:40:23.127Z,47.59
2018-09-27T11:41:23.085Z,47.59
2018-09-27T11:42:23.125Z,47.49
2018-09-27T11:43:23.024Z,47.40
2018-09-27T11:44:23.060Z,46.91
2018-09-27T11:45:22.969Z,47.11
2018-09-27T11:46:22.933Z,47.03
2018-09-27T11:47:22.901Z,46.14
2018-09-27T11:48:22.871Z,46.25
2018-09-27T11:49:22.937Z,46.55
2018-09-27T11:50:23.011Z,46.35
2018-09-27T11:51:22.779Z,45.57
2018-09-27T11:52:22.770Z,45.87
2018-09-27T11:53:22.733Z,45.67
2018-09-27T11:54:22.723Z,45.48
2018-09-27T11:55:22.665Z,44.70
2018-09-27T11:56:22.638Z,44.51
2018-09-27T11:57:22.606Z,43.82
2018-09-27T11:58:22.569Z,43.73
2018-09-27T11:59:22.541Z,43.34
2018-09-27T12:00:22.549Z,42.78
2018-09-27T12:01:22.563Z,42.97
2018-09-27T12:02:22.455Z,43.36
2018-09-27T12:03:22.419Z,42.49
2018-09-27T12:04:22.390Z,42.00
2018-09-27T12:05:22.356Z,42.00
2018-09-27T12:06:22.324Z,41.71
2018-09-27T12:07:22.463Z,41.22
2018-09-27T12:08:22.268Z,40.17
2018-09-27T12:09:22.239Z,40.08
2018-09-27T12:10:22.215Z,39.78
2018-09-27T12:11:22.175Z,39.39
2018-09-27T12:12:22.144Z,39.00
2018-09-27T12:14:22.087Z,39.00
2018-09-27T12:15:22.059Z,38.52
2018-09-27T12:16:22.030Z,38.81
2018-09-27T12:17:21.998Z,38.15
2018-09-27T12:18:21.962Z,37.27
2018-09-27T12:19:21.938Z,36.49
2018-09-27T12:20:21.907Z,37.37
2018-09-27T12:21:21.884Z,37.08
2018-09-27T12:22:21.845Z,37.16
2018-09-27T12:23:21.976Z,35.81
2018-09-27T12:24:21.787Z,36.40
2018-09-27T12:25:21.756Z,35.52
2018-09-27T12:26:21.725Z,35.81
2018-09-27T12:27:21.705Z,35.71
2018-09-27T12:28:21.696Z,35.81
2018-09-27T12:29:21.788Z,35.42
2018-09-27T12:30:21.632Z,34.16
2018-09-27T12:31:21.576Z,34.17
2018-09-27T12:32:21.554Z,34.56
2018-09-27T12:33:21.540Z,34.47
2018-09-27T12:34:21.499Z,34.56
2018-09-27T12:35:21.474Z,33.01
2018-09-27T12:36:21.425Z,33.29
2018-09-27T12:37:21.397Z,33.12
2018-09-27T12:38:21.373Z,32.92
2018-09-27T12:39:21.389Z,32.92
2018-09-27T12:40:21.312Z,32.82
2018-09-27T12:41:21.280Z,32.53
2018-09-27T12:42:21.270Z,32.24
2018-09-27T12:43:21.218Z,32.82
2018-09-27T12:44:21.184Z,32.73
2018-09-27T12:45:21.168Z,31.76
2018-09-27T12:46:21.175Z,32.82
2018-09-27T12:47:21.101Z,32.73
2018-09-27T12:48:21.092Z,32.53
2018-09-27T12:49:21.040Z,32.43
2018-09-27T12:50:21.028Z,32.24
2018-09-27T12:51:21.187Z,32.82
2018-09-27T12:52:21.111Z,33.02
2018-09-27T12:53:20.945Z,32.73
2018-09-27T12:54:20.901Z,32.92
2018-09-27T12:55:20.880Z,31.76
2018-09-27T12:56:20.834Z,31.46
2018-09-27T12:57:20.803Z,31.95
2018-09-27T12:58:20.784Z,31.66
2018-09-27T12:59:20.755Z,30.39